Time;durP1;ratioP1;P1;durP2;ratioP2;P2;SDS_P1;SDS_P2;PMS_P1;PMS_P2;Temp;Humidity;BMP_temperature;BMP_pressure;BME280_temperature;BME280_humidity;BME280_pressure;Samples;Min_cycle;Max_cycle;Signal;HPM_P1;HPM_P2
2022/12/18 00:02:29;;;;;;;92.03;30.50;;;;;;;-4.62;100.00;100469.62;4229698;82;21038;-90
2022/12/18 00:08:35;;;;;;;94.57;30.70;;;;;;;-4.63;100.00;100480.01;4231300;83;21070;-92
2022/12/18 00:14:42;;;;;;;102.27;32.53;;;;;;;-4.67;100.00;100490.90;4221439;83;21041;-92
2022/12/18 00:20:45;;;;;;;102.45;34.78;;;;;;;-4.65;100.00;100490.11;4224388;82;22085;-92
2022/12/18 00:26:57;;;;;;;102.73;33.30;;;;;;;-4.64;100.00;100501.63;4244973;83;21508;-92
2022/12/18 00:33:00;;;;;;;108.07;33.87;;;;;;;-4.64;100.00;100505.63;4244588;83;20970;-92
2022/12/18 00:39:05;;;;;;;96.30;32.13;;;;;;;-4.64;100.00;100513.13;4243948;81;20971;-92
2022/12/18 00:45:11;;;;;;;103.57;33.83;;;;;;;-4.64;100.00;100513.64;4146537;83;21439;-91
2022/12/18 00:51:29;;;;;;;;;;;;;;;;;;;;;
2022/12/18 00:57:42;;;;;;;;;;;;;;;;;;;;;
2022/12/18 01:03:47;;;;;;;;;;;;;;;;;;;;;
2022/12/18 01:10:00;;;;;;;;;;;;;;;;;;;;;
2022/12/18 01:16:09;;;;;;;;;;;;;;;;;;;;;
2022/12/18 01:22:09;;;;;;;93.37;32.33;;;;;;;-4.58;100.00;100568.80;4214822;81;21050;-91
2022/12/18 01:28:34;;;;;;;;;;;;;;;;;;;;;
2022/12/18 01:34:42;;;;;;;;;;;;;;;;;;;;;
2022/12/18 01:40:47;;;;;;;101.07;32.17;;;;;;;-4.63;100.00;100577.54;4250192;82;21029;-93
2022/12/18 01:47:05;;;;;;;;;;;;;;;;;;;;;
2022/12/18 01:53:25;;;;;;;102.73;32.23;;;;;;;-4.61;100.00;100588.81;4263792;82;20973;-92
2022/12/18 01:59:37;;;;;;;;;;;;;;;;;;;;;
2022/12/18 02:12:57;;;;;;;;;;;;;;;;;;;;;
2022/12/18 02:33:02;;;;;;;97.13;32.47;;;;;;;-4.64;100.00;100633.37;3835503;88;21110;-92
2022/12/18 02:46:08;;;;;;;82.17;32.23;;;;;;;-4.59;100.00;100647.36;3966004;87;21033;-92
2022/12/18 02:52:51;;;;;;;86.73;30.57;;;;;;;-4.61;100.00;100644.11;4037916;86;21443;-93
2022/12/18 03:06:15;;;;;;;;;;;;;;;;;;;;;
2022/12/18 03:19:42;;;;;;;;;;;;;;;;;;;;;
2022/12/18 03:26:03;;;;;;;93.67;29.50;;;;;;;-4.56;100.00;100686.98;3844277;86;21616;-92
2022/12/18 03:32:01;;;;;;;91.40;32.27;;;;;;;-4.58;100.00;100684.55;4081474;84;21084;-92
2022/12/18 03:38:24;;;;;;;;;;;;;;;;;;;;;
2022/12/18 03:44:49;;;;;;;83.50;28.93;;;;;;;-4.55;100.00;100694.76;4069890;86;21126;-90
2022/12/18 03:51:06;;;;;;;91.97;32.43;;;;;;;-4.53;100.00;100706.03;4097759;84;21036;-92
2022/12/18 03:57:22;;;;;;;93.13;31.03;;;;;;;-4.56;100.00;100717.20;3829740;92;21035;-91
2022/12/18 04:03:41;;;;;;;;;;;;;;;;;;;;;
2022/12/18 04:16:45;;;;;;;;;;;;;;;;;;;;;
2022/12/18 04:46:52;;;;;;;83.63;28.87;;;;;;;-4.66;100.00;100757.05;3219049;108;21717;-91
2022/12/18 04:53:10;;;;;;;;;;;;;;;;;;;;;
2022/12/18 05:05:41;;;;;;;82.47;28.83;;;;;;;-4.72;100.00;100781.21;4648656;74;22238;-92
2022/12/18 05:11:43;;;;;;;94.33;30.17;;;;;;;-4.77;100.00;100789.92;4592777;75;21106;-92
2022/12/18 05:17:44;;;;;;;86.37;28.50;;;;;;;-4.73;100.00;100785.77;4584248;75;21522;-92
2022/12/18 05:23:46;;;;;;;86.83;29.93;;;;;;;-4.66;100.00;100791.79;4278918;75;32491;-92
2022/12/18 05:29:47;;;;;;;97.57;31.87;;;;;;;-4.61;100.00;100799.11;4230452;82;21020;-91
2022/12/18 05:35:54;;;;;;;95.60;30.50;;;;;;;-4.58;100.00;100794.62;4215318;82;21050;-91
2022/12/18 05:41:56;;;;;;;85.33;29.97;;;;;;;-4.54;100.00;100813.97;4242262;82;21016;-93
2022/12/18 05:47:57;;;;;;;92.67;29.97;;;;;;;-4.59;100.00;100819.23;4245229;82;21068;-91
2022/12/18 05:53:59;;;;;;;83.47;28.10;;;;;;;-4.56;100.00;100821.44;4251872;82;20997;-91
2022/12/18 06:00:00;;;;;;;90.80;30.87;;;;;;;-4.57;100.00;100831.02;4241195;82;21083;-90
2022/12/18 06:06:03;;;;;;;92.27;30.73;;;;;;;-4.59;100.00;100837.94;4250098;82;21646;-92
2022/12/18 06:12:06;;;;;;;93.47;31.57;;;;;;;-4.56;100.00;100842.81;4244947;82;22106;-92
2022/12/18 06:18:08;;;;;;;104.63;31.60;;;;;;;-4.53;100.00;100853.55;4240541;82;21120;-90
2022/12/18 06:24:11;;;;;;;93.53;32.00;;;;;;;-4.56;100.00;100864.20;4248883;82;21299;-90
2022/12/18 06:30:13;;;;;;;95.53;31.60;;;;;;;-4.54;100.00;100870.10;4247125;82;21663;-92
2022/12/18 06:36:16;;;;;;;97.00;33.90;;;;;;;-4.54;100.00;100864.76;4218680;82;21626;-91
2022/12/18 06:42:18;;;;;;;103.77;33.10;;;;;;;-4.54;100.00;100871.98;4221051;82;21612;-90
2022/12/18 06:48:20;;;;;;;94.77;33.93;;;;;;;-4.54;100.00;100885.34;4230055;81;21045;-92
2022/12/18 06:54:21;;;;;;;104.73;33.23;;;;;;;-4.52;100.00;100889.41;4233962;82;21037;-91
2022/12/18 07:00:23;;;;;;;93.43;32.60;;;;;;;-4.50;100.00;100898.02;4240405;82;21134;-90
2022/12/18 07:06:26;;;;;;;89.13;30.53;;;;;;;-4.46;100.00;100910.41;4247504;82;21085;-92
2022/12/18 07:12:27;;;;;;;106.30;34.73;;;;;;;-4.45;100.00;100914.69;4243591;82;21065;-92
2022/12/18 07:18:29;;;;;;;107.00;35.30;;;;;;;-4.41;100.00;100922.53;4241944;82;22272;-91
2022/12/18 07:24:33;;;;;;;97.17;35.47;;;;;;;-4.34;100.00;100933.94;4243515;82;21088;-92
2022/12/18 07:30:38;;;;;;;98.17;35.17;;;;;;;-4.28;100.00;100941.86;4241268;81;21034;-92
2022/12/18 07:36:39;;;;;;;94.87;33.23;;;;;;;-4.22;100.00;100949.47;4243307;82;21515;-92
2022/12/18 07:42:41;;;;;;;100.67;32.40;;;;;;;-4.13;100.00;100960.10;4241458;82;21013;-91
2022/12/18 07:48:45;;;;;;;89.47;32.83;;;;;;;-4.06;100.00;100967.51;4244957;82;21091;-92
2022/12/18 07:54:49;;;;;;;93.83;33.50;;;;;;;-4.01;100.00;100966.30;4243150;82;21045;-91
2022/12/18 08:00:52;;;;;;;88.20;34.47;;;;;;;-3.92;100.00;100981.77;4242657;82;21138;-90
2022/12/18 08:06:53;;;;;;;104.13;38.20;;;;;;;-3.82;100.00;100976.63;4228406;83;21581;-92
2022/12/18 08:12:55;;;;;;;93.00;33.70;;;;;;;-3.80;100.00;100977.73;4220264;83;21115;-91
2022/12/18 08:18:56;;;;;;;91.40;31.20;;;;;;;-3.84;100.00;100973.40;4228826;83;21073;-92
2022/12/18 08:24:58;;;;;;;102.53;31.93;;;;;;;-3.76;100.00;100981.05;4213468;83;21037;-92
2022/12/18 08:30:59;;;;;;;98.30;31.20;;;;;;;-3.62;100.00;100986.98;4216662;82;21125;-92
2022/12/18 08:37:01;;;;;;;86.87;32.03;;;;;;;-3.56;100.00;100986.05;4224425;83;21048;-92
2022/12/18 08:49:23;;;;;;;99.93;32.97;;;;;;;-3.55;100.00;100994.36;4228353;83;21085;-91
2022/12/18 08:55:24;;;;;;;100.87;35.97;;;;;;;-3.40;100.00;101002.19;4235899;83;21504;-91
2022/12/18 09:01:26;;;;;;;93.33;35.27;;;;;;;-3.35;100.00;101009.52;4211770;82;21072;-91
2022/12/18 09:07:27;;;;;;;100.53;35.87;;;;;;;-3.32;100.00;101018.45;4209333;83;21002;-92
2022/12/18 09:13:29;;;;;;;106.30;35.80;;;;;;;-3.30;100.00;101021.17;4221452;82;21046;-91
2022/12/18 09:19:30;;;;;;;105.50;35.73;;;;;;;-3.27;100.00;101026.56;4223561;83;21068;-92
2022/12/18 09:25:35;;;;;;;96.10;35.87;;;;;;;-3.25;100.00;101033.84;4209724;81;21046;-92
2022/12/18 09:31:38;;;;;;;107.47;35.90;;;;;;;-3.28;100.00;101034.32;4194838;83;21056;-93
2022/12/18 09:37:41;;;;;;;90.77;35.50;;;;;;;-3.08;100.00;101044.12;4220642;83;21119;-92
2022/12/18 09:43:54;;;;;;;96.83;35.70;;;;;;;-2.91;100.00;101039.64;4226665;83;22314;-91
2022/12/18 09:50:01;;;;;;;93.87;34.73;;;;;;;-2.90;100.00;101037.27;4219336;83;21089;-91
2022/12/18 09:56:05;;;;;;;92.20;34.20;;;;;;;-2.79;100.00;101040.95;4239901;83;21646;-90
2022/12/18 10:02:26;;;;;;;91.20;33.73;;;;;;;-2.54;100.00;101048.15;4212191;82;21535;-91
2022/12/18 10:09:00;;;;;;;93.12;35.25;;;;;;;-1.96;100.00;101049.99;4249709;82;21620;-92
2022/12/18 10:22:12;;;;;;;93.85;35.85;;;;;;;-0.90;100.00;101046.95;4248896;81;20212;-91
2022/12/18 10:28:16;;;;;;;97.22;37.25;;;;;;;-0.68;100.00;101044.55;4236295;82;21119;-91
2022/12/18 10:34:18;;;;;;;96.15;37.35;;;;;;;-0.52;100.00;101036.90;4248235;82;21055;-91
2022/12/18 10:40:20;;;;;;;87.15;33.63;;;;;;;-0.57;100.00;101027.45;4241034;82;21412;-92
2022/12/18 10:46:22;;;;;;;89.92;33.83;;;;;;;-0.74;100.00;101029.95;4234749;82;21710;-92
2022/12/18 10:52:26;;;;;;;89.25;36.35;;;;;;;-0.60;100.00;101027.14;4240870;81;21101;-91
2022/12/18 10:58:34;;;;;;;94.07;36.10;;;;;;;-0.67;100.00;101026.51;4240913;82;21683;-90
2022/12/18 11:04:40;;;;;;;85.07;33.83;;;;;;;-0.82;100.00;101013.73;4216124;82;21070;-91
2022/12/18 11:10:46;;;;;;;88.23;34.50;;;;;;;-1.06;98.37;101013.70;4165200;83;21098;-90
2022/12/18 11:16:50;;;;;;;80.53;31.42;;;;;;;-1.28;98.87;101004.81;4182829;83;32543;-90
2022/12/18 11:22:58;;;;;;;85.10;31.73;;;;;;;-1.34;99.05;100997.75;4230560;81;31813;-91
2022/12/18 11:29:13;;;;;;;92.90;34.08;;;;;;;-1.18;100.00;100986.14;4282086;81;21131;-91
2022/12/18 11:35:35;;;;;;;81.05;32.78;;;;;;;-1.09;100.00;100977.91;4286498;81;21109;-92
2022/12/18 11:48:23;;;;;;;95.20;34.95;;;;;;;-1.51;98.21;100981.38;4279287;81;22083;-91
2022/12/18 11:54:24;;;;;;;126.80;45.05;;;;;;;-1.74;98.06;100989.92;4282040;81;21051;-90
2022/12/18 12:00:26;;;;;;;100.20;35.80;;;;;;;-2.05;98.06;101001.27;4278570;81;21088;-90
2022/12/18 12:07:00;;;;;;;106.75;39.73;;;;;;;-2.05;98.06;101001.27;4337188;81;21045;-90
2022/12/18 12:13:19;;;;;;;77.65;31.00;;;;;;;-2.04;98.62;100998.06;4363266;80;21088;-91
2022/12/18 12:19:44;;;;;;;74.77;28.98;;;;;;;-2.16;98.40;101006.18;4351513;81;21664;-92
2022/12/18 12:25:57;;;;;;;73.07;27.77;;;;;;;-2.26;99.05;100978.38;4357289;81;21583;-92
2022/12/18 12:32:32;;;;;;;65.03;22.52;;;;;;;-2.09;99.03;100993.42;4351676;80;21030;-91
2022/12/18 12:38:39;;;;;;;44.83;16.73;;;;;;;-2.16;98.31;101007.52;4354890;81;21063;-89
2022/12/18 12:44:49;;;;;;;47.17;17.40;;;;;;;-2.24;97.94;101021.88;4349279;79;21747;-91
2022/12/18 12:50:52;;;;;;;47.38;16.85;;;;;;;-2.34;98.21;101036.44;4342618;80;21031;-91
2022/12/18 12:57:14;;;;;;;56.15;21.30;;;;;;;-2.35;98.02;101042.88;4358705;81;21112;-91
2022/12/18 13:03:36;;;;;;;63.95;25.72;;;;;;;-2.49;97.83;101046.36;4348963;80;21053;-90
2022/12/18 13:09:59;;;;;;;63.20;24.30;;;;;;;-2.58;97.60;101054.51;4337996;81;21109;-90
2022/12/18 13:16:06;;;;;;;67.03;24.85;;;;;;;-2.71;97.58;101062.83;4338067;81;21033;-90
2022/12/18 13:22:23;;;;;;;78.57;28.33;;;;;;;-2.78;98.06;101064.02;4339117;81;21052;-91
2022/12/18 13:28:48;;;;;;;74.60;28.60;;;;;;;-2.85;98.25;101069.52;4339830;81;21058;-91
2022/12/18 13:35:18;;;;;;;72.25;26.23;;;;;;;-2.87;98.13;101060.92;4338977;81;21087;-90
2022/12/18 13:41:27;;;;;;;66.83;24.93;;;;;;;-2.88;98.40;101063.83;4321895;81;21101;-91
2022/12/18 13:47:37;;;;;;;79.45;29.82;;;;;;;-2.99;98.19;101074.05;4336053;81;22452;-91
2022/12/18 13:53:52;;;;;;;79.93;28.83;;;;;;;-3.12;97.80;101081.00;4340747;80;21590;-91
2022/12/18 13:59:55;;;;;;;79.07;28.23;;;;;;;-3.26;98.18;101095.97;4332164;81;21048;-91
2022/12/18 14:06:04;;;;;;;83.63;32.30;;;;;;;-3.27;98.51;101098.37;4327690;80;21126;-90
2022/12/18 14:18:58;;;;;;;84.30;29.67;;;;;;;-3.62;97.75;101104.23;4342876;80;21081;-90
2022/12/18 14:25:25;;;;;;;87.43;31.90;;;;;;;-3.85;97.81;101102.07;4332422;81;21085;-91
2022/12/18 14:31:31;;;;;;;87.23;35.30;;;;;;;-4.18;97.57;101098.53;4332037;81;21084;-92
2022/12/18 14:37:34;;;;;;;91.20;34.83;;;;;;;-4.54;97.20;101109.86;4326159;81;21085;-91
2022/12/18 14:43:38;;;;;;;101.60;38.30;;;;;;;-4.82;97.13;101115.23;4336543;81;21046;-91
2022/12/18 14:49:42;;;;;;;98.67;39.20;;;;;;;-5.08;97.43;101120.05;4332169;81;21046;-91
2022/12/18 14:55:51;;;;;;;104.93;41.93;;;;;;;-5.32;97.54;101135.08;4332821;80;21072;-90
2022/12/18 15:02:24;;;;;;;120.17;49.57;;;;;;;-5.59;97.07;101127.01;4331511;81;21060;-89
2022/12/18 15:08:37;;;;;;;117.43;45.40;;;;;;;-5.81;97.96;101134.30;4355972;80;21059;-90
2022/12/18 15:14:41;;;;;;;117.50;48.13;;;;;;;-5.80;98.81;101131.91;4337241;81;21071;-92
2022/12/18 15:20:55;;;;;;;119.42;48.42;;;;;;;-5.79;98.94;101134.36;4349015;81;21067;-91
2022/12/18 15:26:57;;;;;;;112.97;43.90;;;;;;;-5.84;98.85;101141.42;4347571;81;21631;-91
2022/12/18 15:33:26;;;;;;;118.00;41.70;;;;;;;-5.89;99.00;101146.58;4354913;81;21084;-90
2022/12/18 15:39:29;;;;;;;112.93;44.37;;;;;;;-5.94;99.02;101156.57;4353201;81;22371;-91
2022/12/18 15:45:30;;;;;;;110.97;44.73;;;;;;;-6.02;98.84;101160.00;4357902;81;22064;-92
2022/12/18 15:51:37;;;;;;;114.67;44.13;;;;;;;-6.17;98.70;101157.62;4352633;81;21003;-91
2022/12/18 15:57:38;;;;;;;113.60;45.63;;;;;;;-6.32;98.59;101162.93;4351631;81;21090;-92
2022/12/18 16:03:40;;;;;;;117.73;45.67;;;;;;;-6.41;98.83;101169.04;4355300;80;21063;-91
2022/12/18 16:09:42;;;;;;;115.73;45.40;;;;;;;-6.55;98.55;101166.96;4332224;81;21316;-91
2022/12/18 16:15:45;;;;;;;124.30;47.10;;;;;;;-6.89;97.25;101176.58;4322181;81;22329;-91
2022/12/18 16:21:49;;;;;;;122.43;48.17;;;;;;;-7.30;96.49;101182.72;4329267;81;21119;-91
2022/12/18 16:27:56;;;;;;;132.67;51.83;;;;;;;-7.58;96.83;101188.73;4323101;81;21034;-90
2022/12/18 16:34:22;;;;;;;116.03;46.07;;;;;;;-7.69;97.18;101199.19;4324952;81;21090;-91
2022/12/18 16:40:24;;;;;;;121.57;50.40;;;;;;;-7.90;96.40;101192.70;4337579;80;21085;-90
2022/12/18 16:46:37;;;;;;;132.53;52.60;;;;;;;-8.17;96.00;101207.77;4338412;80;21008;-92
2022/12/18 16:52:40;;;;;;;128.20;51.07;;;;;;;-8.33;95.77;101214.30;4334026;80;21083;-91
2022/12/18 16:58:42;;;;;;;128.27;49.10;;;;;;;-8.38;96.26;101223.89;4370712;80;21955;-91
2022/12/18 17:04:44;;;;;;;131.13;53.57;;;;;;;-8.56;95.45;101235.55;4373045;79;21010;-91
2022/12/18 17:10:45;;;;;;;139.67;52.83;;;;;;;-8.73;95.59;101228.42;4370063;80;21033;-91
2022/12/18 17:16:48;;;;;;;129.53;49.87;;;;;;;-8.82;95.65;101238.90;4366700;79;21017;-90
2022/12/18 17:22:50;;;;;;;128.90;50.73;;;;;;;-8.94;95.79;101219.73;4365258;80;21505;-90
2022/12/18 17:28:52;;;;;;;145.13;54.17;;;;;;;-9.08;95.52;101218.02;4368266;80;21041;-90
2022/12/18 17:34:53;;;;;;;137.03;53.80;;;;;;;-9.31;94.97;101206.80;4364845;80;21033;-92
2022/12/18 17:41:01;;;;;;;144.07;51.40;;;;;;;-9.56;94.68;101186.53;4369417;80;21595;-91
2022/12/18 17:47:04;;;;;;;137.90;50.60;;;;;;;-9.70;94.99;101184.78;4363807;80;22912;-91
2022/12/18 17:53:05;;;;;;;138.37;51.53;;;;;;;-9.77;95.05;101188.70;4282197;82;21039;-91
2022/12/18 17:59:07;;;;;;;149.80;54.73;;;;;;;-10.02;94.14;101175.52;4275837;82;21060;-90
2022/12/18 18:05:10;;;;;;;140.83;53.67;;;;;;;-10.15;94.59;101170.64;4273057;82;21092;-91
2022/12/18 18:17:37;;;;;;;108.92;44.23;;;;;;;-10.17;94.88;101182.75;4276889;82;21733;-90
2022/12/18 18:23:38;;;;;;;156.07;59.03;;;;;;;-10.26;94.66;101185.20;4273806;82;21067;-92
2022/12/18 18:29:40;;;;;;;139.93;52.40;;;;;;;-10.28;94.86;101200.45;4276022;81;21099;-90
2022/12/18 18:35:42;;;;;;;137.23;50.13;;;;;;;-10.41;94.91;101201.62;4244313;82;21051;-90
2022/12/18 18:41:45;;;;;;;138.97;48.17;;;;;;;-10.56;95.03;101199.52;4277040;82;21091;-90
2022/12/18 18:47:47;;;;;;;141.13;54.00;;;;;;;-10.63;95.27;101199.92;4290225;82;20981;-90
2022/12/18 18:53:51;;;;;;;130.13;51.73;;;;;;;-10.65;95.49;101203.28;4282203;82;21118;-89
2022/12/18 18:59:54;;;;;;;168.40;57.57;;;;;;;-10.71;95.64;101203.99;4278697;82;21138;-92
2022/12/18 19:05:58;;;;;;;144.97;52.83;;;;;;;-10.80;95.47;101191.05;4276921;82;21083;-90
2022/12/18 19:25:08;;;;;;;146.20;54.93;;;;;;;-10.56;96.93;101213.25;4333496;80;20961;-89
2022/12/18 19:31:17;;;;;;;149.67;51.17;;;;;;;-10.54;96.41;101207.27;4337940;80;21068;-91
2022/12/18 19:37:24;;;;;;;158.60;55.57;;;;;;;-10.66;95.91;101205.59;4334088;79;21024;-91
2022/12/18 19:50:10;;;;;;;136.77;52.47;;;;;;;-10.97;95.63;101235.40;4334821;80;21060;-90
2022/12/18 19:56:20;;;;;;;150.40;56.17;;;;;;;-11.04;95.24;101243.75;4331190;79;21483;-89
2022/12/18 20:02:24;;;;;;;168.47;62.23;;;;;;;-11.36;95.00;101257.28;4338197;80;20986;-89
2022/12/18 20:08:28;;;;;;;172.85;67.12;;;;;;;-11.46;94.46;101251.41;4343490;80;21002;-90
2022/12/18 20:22:11;;;;;;;181.07;65.47;;;;;;;-11.64;94.77;101253.09;4290856;81;22264;-92
2022/12/18 20:28:05;;;;;;;184.43;67.97;;;;;;;-11.79;93.99;101261.45;4280311;81;20967;-92
2022/12/18 20:34:06;;;;;;;183.73;64.27;;;;;;;-11.92;94.16;101259.08;4290656;81;21906;-91
2022/12/18 20:40:32;;;;;;;204.00;67.17;;;;;;;-12.06;93.65;101263.80;4292528;81;21483;-90
2022/12/18 20:46:55;;;;;;;190.23;65.27;;;;;;;-12.33;93.16;101242.66;4220022;81;21036;-91
2022/12/18 20:52:56;;;;;;;211.80;72.13;;;;;;;-12.49;93.86;101244.06;4271667;81;21290;-89
2022/12/18 20:59:04;;;;;;;193.77;63.37;;;;;;;-12.40;94.90;101231.66;4274827;81;21019;-89
2022/12/18 21:05:35;;;;;;;189.27;64.20;;;;;;;-12.45;94.56;101236.63;4272518;81;20991;-88
2022/12/18 21:26:19;;;;;;;161.70;58.13;;;;;;;-12.65;92.92;101219.58;4204501;83;20982;-89
2022/12/18 21:33:05;;;;;;;151.77;53.30;;;;;;;-12.82;92.94;101200.34;4208852;83;21649;-89
2022/12/18 21:58:50;;;;;;;151.03;52.07;;;;;;;-12.81;93.79;101191.45;4194895;81;21531;-89
2022/12/18 22:12:37;;;;;;;165.80;58.30;;;;;;;-12.87;92.62;101200.03;4283361;80;20970;-89
2022/12/18 22:18:45;;;;;;;156.03;54.73;;;;;;;-13.10;91.48;101199.16;4267141;81;21131;-88
2022/12/18 22:24:47;;;;;;;207.67;71.67;;;;;;;-13.39;91.71;101206.31;4282792;81;21022;-89
2022/12/18 22:30:48;;;;;;;191.00;64.93;;;;;;;-13.39;92.44;101197.09;4273446;80;20975;-88
2022/12/18 22:43:16;;;;;;;147.33;50.73;;;;;;;-13.52;92.00;101189.38;4278935;81;21544;-88
2022/12/18 22:49:21;;;;;;;139.15;50.98;;;;;;;-13.68;91.21;101183.64;4291887;80;21844;-88
2022/12/18 22:55:22;;;;;;;154.70;53.90;;;;;;;-13.72;91.52;101183.66;4303244;79;20956;-89
2022/12/18 23:01:26;;;;;;;157.67;53.50;;;;;;;-13.50;92.42;101186.90;4282770;81;21062;-90
2022/12/18 23:07:31;;;;;;;154.12;51.13;;;;;;;-13.37;91.75;101186.37;4280331;81;20982;-89
2022/12/18 23:13:34;;;;;;;153.40;52.00;;;;;;;-13.33;91.54;101179.31;4280418;81;21035;-89
2022/12/18 23:19:36;;;;;;;144.27;47.17;;;;;;;-13.26;91.53;101186.86;4197195;82;22255;-89
2022/12/18 23:25:37;;;;;;;189.43;59.93;;;;;;;-13.29;91.28;101181.09;4266965;82;21047;-89
2022/12/18 23:31:39;;;;;;;171.27;59.80;;;;;;;-13.27;91.45;101195.77;4270456;82;21174;-89
2022/12/18 23:37:40;;;;;;;161.83;55.87;;;;;;;-13.16;91.67;101210.39;4276722;81;21407;-90
2022/12/18 23:43:42;;;;;;;190.20;64.20;;;;;;;-13.19;90.82;101205.45;4265776;80;20988;-90
2022/12/18 23:49:45;;;;;;;287.87;99.37;;;;;;;-13.41;89.77;101209.63;4273489;81;21590;-90
2022/12/18 23:55:47;;;;;;;212.60;80.30;;;;;;;-13.57;89.75;101198.28;4274005;82;21051;-89
